sensor_id;sensor_type;location;lat;lon;timestamp;P1;durP1;ratioP1;P2;durP2;ratioP2
26906;SDS011;14472;56.880;16.658;2023-07-29T00:00:42;1.15;;;0.90;;
26906;SDS011;14472;56.880;16.658;2023-07-29T00:03:08;1.00;;;1.00;;
26906;SDS011;14472;56.880;16.658;2023-07-29T00:05:35;0.95;;;0.93;;
26906;SDS011;14472;56.880;16.658;2023-07-29T00:08:02;1.10;;;1.00;;
26906;SDS011;14472;56.880;16.658;2023-07-29T00:10:27;1.00;;;0.90;;
26906;SDS011;14472;56.880;16.658;2023-07-29T00:12:53;2.67;;;1.00;;
26906;SDS011;14472;56.880;16.658;2023-07-29T00:15:19;1.17;;;0.90;;
26906;SDS011;14472;56.880;16.658;2023-07-29T00:17:45;1.23;;;1.13;;
26906;SDS011;14472;56.880;16.658;2023-07-29T00:20:11;2.25;;;1.20;;
26906;SDS011;14472;56.880;16.658;2023-07-29T00:22:36;0.90;;;0.90;;
26906;SDS011;14472;56.880;16.658;2023-07-29T00:25:02;1.00;;;1.00;;
26906;SDS011;14472;56.880;16.658;2023-07-29T00:27:28;1.13;;;1.02;;
26906;SDS011;14472;56.880;16.658;2023-07-29T00:29:54;1.00;;;1.00;;
26906;SDS011;14472;56.880;16.658;2023-07-29T00:32:19;1.30;;;1.20;;
26906;SDS011;14472;56.880;16.658;2023-07-29T00:34:45;1.15;;;1.08;;
26906;SDS011;14472;56.880;16.658;2023-07-29T00:37:11;1.13;;;1.00;;
26906;SDS011;14472;56.880;16.658;2023-07-29T00:39:37;1.30;;;1.20;;
26906;SDS011;14472;56.880;16.658;2023-07-29T00:42:03;1.35;;;1.08;;
26906;SDS011;14472;56.880;16.658;2023-07-29T00:44:29;1.17;;;1.08;;
26906;SDS011;14472;56.880;16.658;2023-07-29T00:46:56;1.65;;;1.20;;
26906;SDS011;14472;56.880;16.658;2023-07-29T00:49:23;1.20;;;1.00;;
26906;SDS011;14472;56.880;16.658;2023-07-29T00:51:49;1.20;;;1.10;;
26906;SDS011;14472;56.880;16.658;2023-07-29T00:54:15;1.63;;;1.33;;
26906;SDS011;14472;56.880;16.658;2023-07-29T00:56:41;1.42;;;1.30;;
26906;SDS011;14472;56.880;16.658;2023-07-29T00:59:07;1.88;;;1.13;;
26906;SDS011;14472;56.880;16.658;2023-07-29T01:01:33;1.63;;;1.20;;
26906;SDS011;14472;56.880;16.658;2023-07-29T01:03:59;1.13;;;1.13;;
26906;SDS011;14472;56.880;16.658;2023-07-29T01:06:39;1.13;;;1.05;;
26906;SDS011;14472;56.880;16.658;2023-07-29T01:09:09;1.40;;;1.30;;
26906;SDS011;14472;56.880;16.658;2023-07-29T01:11:55;1.20;;;1.10;;
26906;SDS011;14472;56.880;16.658;2023-07-29T01:14:34;3.10;;;1.20;;
26906;SDS011;14472;56.880;16.658;2023-07-29T01:17:13;1.27;;;1.17;;
26906;SDS011;14472;56.880;16.658;2023-07-29T01:20:00;1.33;;;1.20;;
26906;SDS011;14472;56.880;16.658;2023-07-29T01:22:28;0.90;;;0.90;;
26906;SDS011;14472;56.880;16.658;2023-07-29T01:24:56;1.20;;;1.10;;
26906;SDS011;14472;56.880;16.658;2023-07-29T01:27:23;1.70;;;1.45;;
26906;SDS011;14472;56.880;16.658;2023-07-29T01:29:48;1.60;;;1.50;;
26906;SDS011;14472;56.880;16.658;2023-07-29T01:32:20;1.48;;;1.17;;
26906;SDS011;14472;56.880;16.658;2023-07-29T01:34:55;1.10;;;1.00;;
26906;SDS011;14472;56.880;16.658;2023-07-29T01:37:26;1.15;;;1.00;;
26906;SDS011;14472;56.880;16.658;2023-07-29T01:39:54;1.35;;;1.25;;
26906;SDS011;14472;56.880;16.658;2023-07-29T01:42:22;1.20;;;1.10;;
26906;SDS011;14472;56.880;16.658;2023-07-29T01:44:49;1.30;;;1.20;;
26906;SDS011;14472;56.880;16.658;2023-07-29T01:47:15;1.50;;;1.13;;
26906;SDS011;14472;56.880;16.658;2023-07-29T01:49:42;1.75;;;1.10;;
26906;SDS011;14472;56.880;16.658;2023-07-29T01:52:07;2.28;;;1.23;;
26906;SDS011;14472;56.880;16.658;2023-07-29T01:54:33;1.88;;;1.33;;
26906;SDS011;14472;56.880;16.658;2023-07-29T01:56:59;1.33;;;1.23;;
26906;SDS011;14472;56.880;16.658;2023-07-29T01:59:25;1.27;;;1.17;;
26906;SDS011;14472;56.880;16.658;2023-07-29T02:01:50;1.05;;;1.05;;
26906;SDS011;14472;56.880;16.658;2023-07-29T02:04:16;2.25;;;1.20;;
26906;SDS011;14472;56.880;16.658;2023-07-29T02:06:42;1.30;;;1.20;;
26906;SDS011;14472;56.880;16.658;2023-07-29T02:09:07;0.95;;;0.95;;
26906;SDS011;14472;56.880;16.658;2023-07-29T02:11:33;0.90;;;0.90;;
26906;SDS011;14472;56.880;16.658;2023-07-29T02:13:59;1.50;;;1.40;;
26906;SDS011;14472;56.880;16.658;2023-07-29T02:16:24;1.85;;;1.20;;
26906;SDS011;14472;56.880;16.658;2023-07-29T02:18:50;1.30;;;1.20;;
26906;SDS011;14472;56.880;16.658;2023-07-29T02:21:16;1.70;;;1.25;;
26906;SDS011;14472;56.880;16.658;2023-07-29T02:23:42;1.25;;;1.15;;
26906;SDS011;14472;56.880;16.658;2023-07-29T02:26:07;1.20;;;1.10;;
26906;SDS011;14472;56.880;16.658;2023-07-29T02:28:33;2.13;;;1.10;;
26906;SDS011;14472;56.880;16.658;2023-07-29T02:33:54;1.33;;;1.23;;
26906;SDS011;14472;56.880;16.658;2023-07-29T02:36:20;1.02;;;0.98;;
26906;SDS011;14472;56.880;16.658;2023-07-29T02:38:46;1.30;;;1.20;;
26906;SDS011;14472;56.880;16.658;2023-07-29T02:41:12;1.45;;;1.10;;
26906;SDS011;14472;56.880;16.658;2023-07-29T02:43:38;1.17;;;1.08;;
26906;SDS011;14472;56.880;16.658;2023-07-29T02:46:06;1.35;;;1.25;;
26906;SDS011;14472;56.880;16.658;2023-07-29T02:48:31;1.35;;;1.10;;
26906;SDS011;14472;56.880;16.658;2023-07-29T02:50:57;1.00;;;1.00;;
26906;SDS011;14472;56.880;16.658;2023-07-29T02:53:23;1.50;;;1.40;;
26906;SDS011;14472;56.880;16.658;2023-07-29T02:55:48;1.30;;;1.20;;
26906;SDS011;14472;56.880;16.658;2023-07-29T02:58:14;1.40;;;1.05;;
26906;SDS011;14472;56.880;16.658;2023-07-29T03:00:40;1.10;;;1.00;;
26906;SDS011;14472;56.880;16.658;2023-07-29T03:03:10;1.48;;;1.13;;
26906;SDS011;14472;56.880;16.658;2023-07-29T03:05:35;1.20;;;1.10;;
26906;SDS011;14472;56.880;16.658;2023-07-29T03:08:02;2.53;;;1.17;;
26906;SDS011;14472;56.880;16.658;2023-07-29T03:10:28;1.30;;;1.10;;
26906;SDS011;14472;56.880;16.658;2023-07-29T03:12:54;1.35;;;1.25;;
26906;SDS011;14472;56.880;16.658;2023-07-29T03:15:23;1.20;;;1.10;;
26906;SDS011;14472;56.880;16.658;2023-07-29T03:17:50;1.60;;;1.50;;
26906;SDS011;14472;56.880;16.658;2023-07-29T03:20:16;1.55;;;1.45;;
26906;SDS011;14472;56.880;16.658;2023-07-29T03:22:43;2.35;;;1.17;;
26906;SDS011;14472;56.880;16.658;2023-07-29T03:25:09;2.90;;;1.40;;
26906;SDS011;14472;56.880;16.658;2023-07-29T03:27:35;1.60;;;1.20;;
26906;SDS011;14472;56.880;16.658;2023-07-29T03:30:05;1.65;;;1.20;;
26906;SDS011;14472;56.880;16.658;2023-07-29T03:32:31;1.38;;;1.20;;
26906;SDS011;14472;56.880;16.658;2023-07-29T03:34:57;1.98;;;1.10;;
26906;SDS011;14472;56.880;16.658;2023-07-29T03:37:23;1.40;;;1.30;;
26906;SDS011;14472;56.880;16.658;2023-07-29T03:39:49;1.40;;;1.30;;
26906;SDS011;14472;56.880;16.658;2023-07-29T03:42:17;1.40;;;1.30;;
26906;SDS011;14472;56.880;16.658;2023-07-29T03:44:43;1.63;;;1.40;;
26906;SDS011;14472;56.880;16.658;2023-07-29T03:47:08;1.40;;;1.30;;
26906;SDS011;14472;56.880;16.658;2023-07-29T03:49:34;1.13;;;1.02;;
26906;SDS011;14472;56.880;16.658;2023-07-29T03:52:00;1.83;;;1.20;;
26906;SDS011;14472;56.880;16.658;2023-07-29T03:54:26;1.40;;;1.30;;
26906;SDS011;14472;56.880;16.658;2023-07-29T03:56:51;2.70;;;1.30;;
26906;SDS011;14472;56.880;16.658;2023-07-29T03:59:17;1.65;;;1.50;;
26906;SDS011;14472;56.880;16.658;2023-07-29T04:01:43;1.30;;;1.20;;
26906;SDS011;14472;56.880;16.658;2023-07-29T04:04:08;1.98;;;1.30;;
26906;SDS011;14472;56.880;16.658;2023-07-29T04:06:34;1.30;;;1.20;;
26906;SDS011;14472;56.880;16.658;2023-07-29T04:09:00;1.10;;;1.10;;
26906;SDS011;14472;56.880;16.658;2023-07-29T04:11:26;1.35;;;1.25;;
26906;SDS011;14472;56.880;16.658;2023-07-29T04:13:52;1.25;;;1.15;;
26906;SDS011;14472;56.880;16.658;2023-07-29T04:16:17;1.20;;;1.10;;
26906;SDS011;14472;56.880;16.658;2023-07-29T04:18:43;1.75;;;1.20;;
26906;SDS011;14472;56.880;16.658;2023-07-29T04:21:09;1.20;;;1.10;;
26906;SDS011;14472;56.880;16.658;2023-07-29T04:23:34;1.40;;;1.20;;
26906;SDS011;14472;56.880;16.658;2023-07-29T04:26:00;1.30;;;1.20;;
26906;SDS011;14472;56.880;16.658;2023-07-29T04:28:26;1.25;;;1.15;;
26906;SDS011;14472;56.880;16.658;2023-07-29T04:30:52;2.13;;;1.38;;
26906;SDS011;14472;56.880;16.658;2023-07-29T04:33:17;1.45;;;1.30;;
26906;SDS011;14472;56.880;16.658;2023-07-29T04:35:43;1.90;;;1.20;;
26906;SDS011;14472;56.880;16.658;2023-07-29T04:38:09;3.35;;;1.20;;
26906;SDS011;14472;56.880;16.658;2023-07-29T04:40:35;1.52;;;1.30;;
26906;SDS011;14472;56.880;16.658;2023-07-29T04:43:01;2.15;;;1.30;;
26906;SDS011;14472;56.880;16.658;2023-07-29T04:45:30;1.48;;;1.38;;
26906;SDS011;14472;56.880;16.658;2023-07-29T04:47:56;1.40;;;1.30;;
26906;SDS011;14472;56.880;16.658;2023-07-29T04:50:23;2.75;;;1.20;;
26906;SDS011;14472;56.880;16.658;2023-07-29T04:52:48;1.42;;;1.33;;
26906;SDS011;14472;56.880;16.658;2023-07-29T04:55:14;2.38;;;1.40;;
26906;SDS011;14472;56.880;16.658;2023-07-29T04:57:40;1.38;;;1.30;;
26906;SDS011;14472;56.880;16.658;2023-07-29T05:00:06;1.55;;;1.30;;
26906;SDS011;14472;56.880;16.658;2023-07-29T05:02:32;1.40;;;1.30;;
26906;SDS011;14472;56.880;16.658;2023-07-29T05:04:58;1.30;;;1.20;;
26906;SDS011;14472;56.880;16.658;2023-07-29T05:07:23;1.50;;;1.40;;
26906;SDS011;14472;56.880;16.658;2023-07-29T05:09:49;2.00;;;1.17;;
26906;SDS011;14472;56.880;16.658;2023-07-29T05:12:15;1.35;;;1.25;;
26906;SDS011;14472;56.880;16.658;2023-07-29T05:14:41;1.40;;;1.27;;
26906;SDS011;14472;56.880;16.658;2023-07-29T05:17:06;3.05;;;1.30;;
26906;SDS011;14472;56.880;16.658;2023-07-29T05:19:32;3.03;;;1.38;;
26906;SDS011;14472;56.880;16.658;2023-07-29T05:21:58;1.58;;;1.30;;
26906;SDS011;14472;56.880;16.658;2023-07-29T05:24:23;1.52;;;1.20;;
26906;SDS011;14472;56.880;16.658;2023-07-29T05:26:49;1.13;;;1.10;;
26906;SDS011;14472;56.880;16.658;2023-07-29T05:29:15;1.33;;;1.20;;
26906;SDS011;14472;56.880;16.658;2023-07-29T05:31:40;1.38;;;1.27;;
26906;SDS011;14472;56.880;16.658;2023-07-29T05:34:06;1.65;;;1.20;;
26906;SDS011;14472;56.880;16.658;2023-07-29T05:36:32;1.35;;;1.20;;
26906;SDS011;14472;56.880;16.658;2023-07-29T05:38:58;1.30;;;1.20;;
26906;SDS011;14472;56.880;16.658;2023-07-29T05:41:24;1.38;;;1.27;;
26906;SDS011;14472;56.880;16.658;2023-07-29T05:43:52;1.30;;;1.20;;
26906;SDS011;14472;56.880;16.658;2023-07-29T05:46:18;1.30;;;1.20;;
26906;SDS011;14472;56.880;16.658;2023-07-29T05:48:44;1.20;;;1.10;;
26906;SDS011;14472;56.880;16.658;2023-07-29T05:51:09;1.23;;;1.13;;
26906;SDS011;14472;56.880;16.658;2023-07-29T05:53:35;1.30;;;1.20;;
26906;SDS011;14472;56.880;16.658;2023-07-29T05:56:01;1.73;;;1.17;;
26906;SDS011;14472;56.880;16.658;2023-07-29T05:58:26;1.30;;;1.20;;
26906;SDS011;14472;56.880;16.658;2023-07-29T06:00:52;1.17;;;1.08;;
26906;SDS011;14472;56.880;16.658;2023-07-29T06:03:18;1.13;;;1.02;;
26906;SDS011;14472;56.880;16.658;2023-07-29T06:05:44;1.20;;;1.10;;
26906;SDS011;14472;56.880;16.658;2023-07-29T06:08:09;0.88;;;0.88;;
26906;SDS011;14472;56.880;16.658;2023-07-29T06:10:35;1.40;;;1.30;;
26906;SDS011;14472;56.880;16.658;2023-07-29T06:13:01;0.95;;;0.90;;
26906;SDS011;14472;56.880;16.658;2023-07-29T06:15:26;1.23;;;1.00;;
26906;SDS011;14472;56.880;16.658;2023-07-29T06:17:52;1.15;;;1.00;;
26906;SDS011;14472;56.880;16.658;2023-07-29T06:20:18;1.35;;;1.25;;
26906;SDS011;14472;56.880;16.658;2023-07-29T06:22:44;1.33;;;1.10;;
26906;SDS011;14472;56.880;16.658;2023-07-29T06:25:10;1.23;;;1.00;;
26906;SDS011;14472;56.880;16.658;2023-07-29T06:27:35;1.10;;;1.00;;
26906;SDS011;14472;56.880;16.658;2023-07-29T06:30:01;1.20;;;1.10;;
26906;SDS011;14472;56.880;16.658;2023-07-29T06:32:27;1.50;;;1.10;;
26906;SDS011;14472;56.880;16.658;2023-07-29T06:34:53;1.42;;;1.30;;
26906;SDS011;14472;56.880;16.658;2023-07-29T06:37:19;1.35;;;1.25;;
26906;SDS011;14472;56.880;16.658;2023-07-29T06:39:45;1.35;;;1.17;;
26906;SDS011;14472;56.880;16.658;2023-07-29T06:42:11;1.20;;;1.10;;
26906;SDS011;14472;56.880;16.658;2023-07-29T06:44:37;2.35;;;1.30;;
26906;SDS011;14472;56.880;16.658;2023-07-29T06:47:03;1.50;;;1.30;;
26906;SDS011;14472;56.880;16.658;2023-07-29T06:49:29;1.10;;;1.00;;
26906;SDS011;14472;56.880;16.658;2023-07-29T06:51:55;2.13;;;1.30;;
26906;SDS011;14472;56.880;16.658;2023-07-29T06:54:23;1.17;;;1.05;;
26906;SDS011;14472;56.880;16.658;2023-07-29T06:56:50;2.13;;;1.05;;
26906;SDS011;14472;56.880;16.658;2023-07-29T06:59:16;1.10;;;1.10;;
26906;SDS011;14472;56.880;16.658;2023-07-29T07:01:42;1.33;;;1.00;;
26906;SDS011;14472;56.880;16.658;2023-07-29T07:04:08;1.20;;;1.10;;
26906;SDS011;14472;56.880;16.658;2023-07-29T07:06:33;1.20;;;1.10;;
26906;SDS011;14472;56.880;16.658;2023-07-29T07:08:59;3.28;;;1.00;;
26906;SDS011;14472;56.880;16.658;2023-07-29T07:11:25;1.00;;;1.00;;
26906;SDS011;14472;56.880;16.658;2023-07-29T07:13:50;2.70;;;1.10;;
26906;SDS011;14472;56.880;16.658;2023-07-29T07:16:16;1.75;;;1.20;;
26906;SDS011;14472;56.880;16.658;2023-07-29T07:18:42;1.77;;;1.10;;
26906;SDS011;14472;56.880;16.658;2023-07-29T07:21:08;1.20;;;1.10;;
26906;SDS011;14472;56.880;16.658;2023-07-29T07:23:33;1.20;;;1.10;;
26906;SDS011;14472;56.880;16.658;2023-07-29T07:25:59;1.42;;;1.20;;
26906;SDS011;14472;56.880;16.658;2023-07-29T07:28:25;1.23;;;1.13;;
26906;SDS011;14472;56.880;16.658;2023-07-29T07:30:51;1.20;;;1.10;;
26906;SDS011;14472;56.880;16.658;2023-07-29T07:33:17;1.05;;;1.00;;
26906;SDS011;14472;56.880;16.658;2023-07-29T07:35:43;1.50;;;1.10;;
26906;SDS011;14472;56.880;16.658;2023-07-29T07:38:08;1.20;;;1.10;;
26906;SDS011;14472;56.880;16.658;2023-07-29T07:40:35;1.33;;;1.10;;
26906;SDS011;14472;56.880;16.658;2023-07-29T07:43:01;1.42;;;1.20;;
26906;SDS011;14472;56.880;16.658;2023-07-29T07:45:27;1.40;;;1.05;;
26906;SDS011;14472;56.880;16.658;2023-07-29T07:47:53;1.50;;;1.05;;
26906;SDS011;14472;56.880;16.658;2023-07-29T07:50:19;1.33;;;1.20;;
26906;SDS011;14472;56.880;16.658;2023-07-29T07:52:45;1.73;;;1.10;;
26906;SDS011;14472;56.880;16.658;2023-07-29T07:55:11;1.30;;;1.17;;
26906;SDS011;14472;56.880;16.658;2023-07-29T07:57:36;2.55;;;1.20;;
26906;SDS011;14472;56.880;16.658;2023-07-29T08:00:02;1.25;;;1.13;;
26906;SDS011;14472;56.880;16.658;2023-07-29T08:02:29;1.58;;;1.20;;
26906;SDS011;14472;56.880;16.658;2023-07-29T08:04:55;1.55;;;1.13;;
26906;SDS011;14472;56.880;16.658;2023-07-29T08:07:21;1.08;;;1.02;;
26906;SDS011;14472;56.880;16.658;2023-07-29T08:09:47;1.27;;;1.02;;
26906;SDS011;14472;56.880;16.658;2023-07-29T08:12:12;1.75;;;1.20;;
26906;SDS011;14472;56.880;16.658;2023-07-29T08:14:38;1.42;;;1.15;;
26906;SDS011;14472;56.880;16.658;2023-07-29T08:17:04;1.80;;;1.10;;
26906;SDS011;14472;56.880;16.658;2023-07-29T08:19:29;1.38;;;1.10;;
26906;SDS011;14472;56.880;16.658;2023-07-29T08:21:55;1.13;;;1.00;;
26906;SDS011;14472;56.880;16.658;2023-07-29T08:24:21;1.17;;;1.00;;
26906;SDS011;14472;56.880;16.658;2023-07-29T08:26:47;1.17;;;0.90;;
26906;SDS011;14472;56.880;16.658;2023-07-29T08:29:12;1.48;;;0.90;;
26906;SDS011;14472;56.880;16.658;2023-07-29T08:31:38;1.23;;;1.10;;
26906;SDS011;14472;56.880;16.658;2023-07-29T08:34:04;1.00;;;1.00;;
26906;SDS011;14472;56.880;16.658;2023-07-29T08:36:30;1.00;;;0.90;;
26906;SDS011;14472;56.880;16.658;2023-07-29T08:38:55;1.17;;;1.08;;
26906;SDS011;14472;56.880;16.658;2023-07-29T08:41:24;0.88;;;0.88;;
26906;SDS011;14472;56.880;16.658;2023-07-29T08:44:01;1.17;;;1.05;;
26906;SDS011;14472;56.880;16.658;2023-07-29T08:46:32;1.48;;;1.00;;
26906;SDS011;14472;56.880;16.658;2023-07-29T08:48:59;0.90;;;0.90;;
26906;SDS011;14472;56.880;16.658;2023-07-29T08:51:26;0.80;;;0.80;;
26906;SDS011;14472;56.880;16.658;2023-07-29T08:53:54;1.00;;;0.90;;
26906;SDS011;14472;56.880;16.658;2023-07-29T08:56:20;1.05;;;0.90;;
26906;SDS011;14472;56.880;16.658;2023-07-29T08:58:46;1.00;;;0.90;;
26906;SDS011;14472;56.880;16.658;2023-07-29T09:01:12;1.17;;;1.08;;
26906;SDS011;14472;56.880;16.658;2023-07-29T09:03:40;0.95;;;0.82;;
26906;SDS011;14472;56.880;16.658;2023-07-29T09:06:06;1.88;;;1.10;;
26906;SDS011;14472;56.880;16.658;2023-07-29T09:08:33;1.10;;;1.00;;
26906;SDS011;14472;56.880;16.658;2023-07-29T09:11:00;2.40;;;0.90;;
26906;SDS011;14472;56.880;16.658;2023-07-29T09:13:26;2.55;;;1.00;;
26906;SDS011;14472;56.880;16.658;2023-07-29T09:15:55;1.48;;;0.90;;
26906;SDS011;14472;56.880;16.658;2023-07-29T09:18:22;1.75;;;0.90;;
26906;SDS011;14472;56.880;16.658;2023-07-29T09:20:48;0.80;;;0.80;;
26906;SDS011;14472;56.880;16.658;2023-07-29T09:23:15;0.95;;;0.80;;
26906;SDS011;14472;56.880;16.658;2023-07-29T09:25:41;2.67;;;1.00;;
26906;SDS011;14472;56.880;16.658;2023-07-29T09:28:11;1.45;;;0.75;;
26906;SDS011;14472;56.880;16.658;2023-07-29T09:30:39;1.35;;;0.80;;
26906;SDS011;14472;56.880;16.658;2023-07-29T09:33:07;2.30;;;1.00;;
26906;SDS011;14472;56.880;16.658;2023-07-29T09:35:34;2.45;;;1.00;;
26906;SDS011;14472;56.880;16.658;2023-07-29T09:38:05;1.13;;;0.70;;
26906;SDS011;14472;56.880;16.658;2023-07-29T09:40:38;0.70;;;0.70;;
26906;SDS011;14472;56.880;16.658;2023-07-29T09:43:06;1.00;;;0.88;;
26906;SDS011;14472;56.880;16.658;2023-07-29T09:45:34;1.17;;;0.80;;
26906;SDS011;14472;56.880;16.658;2023-07-29T09:48:01;1.10;;;1.00;;
26906;SDS011;14472;56.880;16.658;2023-07-29T09:50:28;0.80;;;0.80;;
26906;SDS011;14472;56.880;16.658;2023-07-29T09:52:54;1.05;;;0.68;;
26906;SDS011;14472;56.880;16.658;2023-07-29T09:55:23;0.90;;;0.90;;
26906;SDS011;14472;56.880;16.658;2023-07-29T09:58:01;1.20;;;0.82;;
26906;SDS011;14472;56.880;16.658;2023-07-29T10:00:32;0.80;;;0.80;;
26906;SDS011;14472;56.880;16.658;2023-07-29T10:02:58;1.75;;;0.80;;
26906;SDS011;14472;56.880;16.658;2023-07-29T10:05:28;1.90;;;0.80;;
26906;SDS011;14472;56.880;16.658;2023-07-29T10:07:55;1.02;;;0.93;;
26906;SDS011;14472;56.880;16.658;2023-07-29T10:10:21;1.23;;;0.90;;
26906;SDS011;14472;56.880;16.658;2023-07-29T10:12:47;1.40;;;0.95;;
26906;SDS011;14472;56.880;16.658;2023-07-29T10:15:14;1.15;;;0.93;;
26906;SDS011;14472;56.880;16.658;2023-07-29T10:17:40;0.80;;;0.80;;
26906;SDS011;14472;56.880;16.658;2023-07-29T10:20:07;1.08;;;0.80;;
26906;SDS011;14472;56.880;16.658;2023-07-29T10:22:38;1.15;;;0.80;;
26906;SDS011;14472;56.880;16.658;2023-07-29T10:25:18;1.10;;;1.00;;
26906;SDS011;14472;56.880;16.658;2023-07-29T10:27:56;0.70;;;0.70;;
26906;SDS011;14472;56.880;16.658;2023-07-29T10:30:29;0.68;;;0.68;;
26906;SDS011;14472;56.880;16.658;2023-07-29T10:32:57;0.68;;;0.68;;
26906;SDS011;14472;56.880;16.658;2023-07-29T10:35:24;0.70;;;0.70;;
26906;SDS011;14472;56.880;16.658;2023-07-29T10:37:53;1.88;;;0.82;;
26906;SDS011;14472;56.880;16.658;2023-07-29T10:40:19;1.92;;;1.00;;
26906;SDS011;14472;56.880;16.658;2023-07-29T10:43:01;2.63;;;0.90;;
26906;SDS011;14472;56.880;16.658;2023-07-29T10:45:40;0.77;;;0.77;;
26906;SDS011;14472;56.880;16.658;2023-07-29T10:48:40;1.08;;;1.00;;
26906;SDS011;14472;56.880;16.658;2023-07-29T10:51:42;0.95;;;0.95;;
26906;SDS011;14472;56.880;16.658;2023-07-29T10:53:54;3.40;;;1.00;;
26906;SDS011;14472;56.880;16.658;2023-07-29T10:56:24;1.30;;;1.20;;
26906;SDS011;14472;56.880;16.658;2023-07-29T10:58:55;1.30;;;1.10;;
26906;SDS011;14472;56.880;16.658;2023-07-29T11:01:31;1.83;;;1.20;;
26906;SDS011;14472;56.880;16.658;2023-07-29T11:17:44;1.55;;;1.20;;
26906;SDS011;14472;56.880;16.658;2023-07-29T11:20:15;1.10;;;0.90;;
26906;SDS011;14472;56.880;16.658;2023-07-29T11:22:42;1.02;;;0.82;;
26906;SDS011;14472;56.880;16.658;2023-07-29T11:25:09;2.25;;;0.80;;
26906;SDS011;14472;56.880;16.658;2023-07-29T11:27:36;1.50;;;1.20;;
26906;SDS011;14472;56.880;16.658;2023-07-29T11:30:04;1.45;;;1.20;;
26906;SDS011;14472;56.880;16.658;2023-07-29T11:32:31;1.77;;;0.95;;
26906;SDS011;14472;56.880;16.658;2023-07-29T11:35:07;1.08;;;0.98;;
26906;SDS011;14472;56.880;16.658;2023-07-29T11:37:36;1.40;;;1.10;;
26906;SDS011;14472;56.880;16.658;2023-07-29T11:40:02;0.88;;;0.80;;
26906;SDS011;14472;56.880;16.658;2023-07-29T11:42:30;1.00;;;0.80;;
26906;SDS011;14472;56.880;16.658;2023-07-29T11:44:58;2.38;;;1.05;;
26906;SDS011;14472;56.880;16.658;2023-07-29T11:47:24;0.90;;;0.90;;
26906;SDS011;14472;56.880;16.658;2023-07-29T11:49:50;1.77;;;0.90;;
26906;SDS011;14472;56.880;16.658;2023-07-29T11:52:15;0.82;;;0.82;;
26906;SDS011;14472;56.880;16.658;2023-07-29T11:54:46;1.17;;;1.02;;
26906;SDS011;14472;56.880;16.658;2023-07-29T11:57:14;1.08;;;0.98;;
26906;SDS011;14472;56.880;16.658;2023-07-29T11:59:40;1.42;;;0.90;;
26906;SDS011;14472;56.880;16.658;2023-07-29T12:02:11;1.60;;;0.88;;
26906;SDS011;14472;56.880;16.658;2023-07-29T12:04:40;0.90;;;0.70;;
26906;SDS011;14472;56.880;16.658;2023-07-29T12:07:06;1.35;;;0.98;;
26906;SDS011;14472;56.880;16.658;2023-07-29T12:09:33;0.88;;;0.88;;
26906;SDS011;14472;56.880;16.658;2023-07-29T12:12:00;2.45;;;0.95;;
26906;SDS011;14472;56.880;16.658;2023-07-29T12:14:30;1.48;;;0.90;;
26906;SDS011;14472;56.880;16.658;2023-07-29T12:16:56;1.10;;;1.00;;
26906;SDS011;14472;56.880;16.658;2023-07-29T12:19:32;1.58;;;1.10;;
26906;SDS011;14472;56.880;16.658;2023-07-29T12:21:59;0.98;;;0.90;;
26906;SDS011;14472;56.880;16.658;2023-07-29T12:24:29;1.90;;;1.10;;
26906;SDS011;14472;56.880;16.658;2023-07-29T12:26:56;1.88;;;1.00;;
26906;SDS011;14472;56.880;16.658;2023-07-29T12:29:22;1.50;;;1.00;;
26906;SDS011;14472;56.880;16.658;2023-07-29T12:31:49;1.27;;;1.10;;
26906;SDS011;14472;56.880;16.658;2023-07-29T12:34:22;2.63;;;0.90;;
26906;SDS011;14472;56.880;16.658;2023-07-29T12:36:50;2.35;;;1.02;;
26906;SDS011;14472;56.880;16.658;2023-07-29T12:41:47;2.55;;;1.30;;
26906;SDS011;14472;56.880;16.658;2023-07-29T12:44:14;1.92;;;1.30;;
26906;SDS011;14472;56.880;16.658;2023-07-29T12:46:39;1.20;;;1.10;;
26906;SDS011;14472;56.880;16.658;2023-07-29T12:49:05;2.20;;;1.17;;
26906;SDS011;14472;56.880;16.658;2023-07-29T12:51:31;1.30;;;1.20;;
26906;SDS011;14472;56.880;16.658;2023-07-29T12:53:58;1.10;;;1.00;;
26906;SDS011;14472;56.880;16.658;2023-07-29T12:56:24;1.98;;;1.33;;
26906;SDS011;14472;56.880;16.658;2023-07-29T12:58:49;2.50;;;1.67;;
26906;SDS011;14472;56.880;16.658;2023-07-29T13:01:15;2.03;;;1.50;;
26906;SDS011;14472;56.880;16.658;2023-07-29T13:03:43;1.60;;;1.35;;
26906;SDS011;14472;56.880;16.658;2023-07-29T13:06:10;2.00;;;1.60;;
26906;SDS011;14472;56.880;16.658;2023-07-29T13:08:36;1.73;;;1.40;;
26906;SDS011;14472;56.880;16.658;2023-07-29T13:11:03;1.70;;;1.48;;
26906;SDS011;14472;56.880;16.658;2023-07-29T13:13:29;1.63;;;1.20;;
26906;SDS011;14472;56.880;16.658;2023-07-29T13:15:58;4.20;;;1.60;;
26906;SDS011;14472;56.880;16.658;2023-07-29T13:18:24;1.85;;;1.52;;
26906;SDS011;14472;56.880;16.658;2023-07-29T13:20:50;1.50;;;1.40;;
26906;SDS011;14472;56.880;16.658;2023-07-29T13:23:16;3.22;;;2.00;;
26906;SDS011;14472;56.880;16.658;2023-07-29T13:25:41;1.98;;;1.67;;
26906;SDS011;14472;56.880;16.658;2023-07-29T13:28:10;1.35;;;1.25;;
26906;SDS011;14472;56.880;16.658;2023-07-29T13:30:38;2.85;;;1.65;;
26906;SDS011;14472;56.880;16.658;2023-07-29T13:33:04;1.85;;;1.60;;
26906;SDS011;14472;56.880;16.658;2023-07-29T13:35:31;1.80;;;1.70;;
26906;SDS011;14472;56.880;16.658;2023-07-29T13:37:56;3.20;;;1.67;;
26906;SDS011;14472;56.880;16.658;2023-07-29T13:40:22;2.42;;;1.80;;
26906;SDS011;14472;56.880;16.658;2023-07-29T13:42:48;2.53;;;1.83;;
26906;SDS011;14472;56.880;16.658;2023-07-29T13:45:14;3.40;;;1.73;;
26906;SDS011;14472;56.880;16.658;2023-07-29T13:47:40;1.95;;;1.58;;
26906;SDS011;14472;56.880;16.658;2023-07-29T13:50:05;3.03;;;1.90;;
26906;SDS011;14472;56.880;16.658;2023-07-29T13:52:33;2.30;;;2.00;;
26906;SDS011;14472;56.880;16.658;2023-07-29T13:55:01;2.45;;;2.25;;
26906;SDS011;14472;56.880;16.658;2023-07-29T13:57:26;3.25;;;2.22;;
26906;SDS011;14472;56.880;16.658;2023-07-29T13:59:52;4.15;;;2.28;;
26906;SDS011;14472;56.880;16.658;2023-07-29T14:02:18;3.30;;;2.70;;
26906;SDS011;14472;56.880;16.658;2023-07-29T14:04:43;6.47;;;3.78;;
26906;SDS011;14472;56.880;16.658;2023-07-29T14:07:09;3.58;;;2.67;;
26906;SDS011;14472;56.880;16.658;2023-07-29T14:09:35;3.40;;;2.80;;
26906;SDS011;14472;56.880;16.658;2023-07-29T14:12:01;3.38;;;2.13;;
26906;SDS011;14472;56.880;16.658;2023-07-29T14:14:26;2.70;;;2.10;;
26906;SDS011;14472;56.880;16.658;2023-07-29T14:16:52;3.50;;;1.95;;
26906;SDS011;14472;56.880;16.658;2023-07-29T14:19:18;3.47;;;2.03;;
26906;SDS011;14472;56.880;16.658;2023-07-29T14:21:43;4.05;;;2.05;;
26906;SDS011;14472;56.880;16.658;2023-07-29T14:24:09;2.67;;;2.10;;
26906;SDS011;14472;56.880;16.658;2023-07-29T14:26:35;2.22;;;1.90;;
26906;SDS011;14472;56.880;16.658;2023-07-29T14:29:01;2.25;;;1.90;;
26906;SDS011;14472;56.880;16.658;2023-07-29T14:31:26;3.42;;;2.00;;
26906;SDS011;14472;56.880;16.658;2023-07-29T14:33:52;2.35;;;2.10;;
26906;SDS011;14472;56.880;16.658;2023-07-29T14:36:18;3.05;;;2.10;;
26906;SDS011;14472;56.880;16.658;2023-07-29T14:38:43;3.97;;;2.30;;
26906;SDS011;14472;56.880;16.658;2023-07-29T14:41:09;2.90;;;1.90;;
26906;SDS011;14472;56.880;16.658;2023-07-29T14:43:35;1.95;;;1.70;;
26906;SDS011;14472;56.880;16.658;2023-07-29T14:46:01;2.47;;;1.98;;
26906;SDS011;14472;56.880;16.658;2023-07-29T14:48:27;2.30;;;2.08;;
26906;SDS011;14472;56.880;16.658;2023-07-29T14:50:54;2.35;;;2.00;;